createdAt,value
2019-05-07T00:09:03.163Z,5702.8
2019-05-07T00:19:02.033Z,5702.8
2019-05-07T00:29:02.032Z,5702.8
2019-05-07T00:38:58.896Z,5702.8
2019-05-07T00:55:19.578Z,5702.8
2019-05-07T01:05:18.786Z,5702.8
2019-05-07T01:15:28.654Z,5702.8
2019-05-07T01:30:53.731Z,5702.8
2019-05-07T01:40:52.938Z,5702.8
2019-05-07T01:50:52.602Z,5702.8
2019-05-07T02:00:53.155Z,5702.8
2019-05-07T02:10:52.295Z,5702.8
2019-05-07T02:20:49.788Z,5702.8
2019-05-07T02:30:49.045Z,5702.8
2019-05-07T02:40:48.350Z,5702.9
2019-05-07T02:58:39.658Z,5703
2019-05-07T03:08:38.860Z,5703.3
2019-05-07T03:18:38.074Z,5703.5
2019-05-07T03:28:37.384Z,5703.8
2019-05-07T03:38:36.505Z,5704
2019-05-07T03:48:35.711Z,5704.2
2019-05-07T03:58:17.505Z,5703
2019-05-07T04:10:40.172Z,5703
2019-05-07T04:26:08.544Z,5703
2019-05-07T04:36:07.651Z,5703.3
2019-05-07T04:46:06.866Z,5703.5
2019-05-07T04:56:06.082Z,5703.7
2019-05-07T05:06:05.352Z,5703.7
2019-05-07T05:17:46.222Z,5702.8
2019-05-07T05:27:32.768Z,5702.8
2019-05-07T05:37:32.173Z,5702.8
2019-05-07T05:47:32.938Z,5702.8
2019-05-07T05:57:32.227Z,5702.8
2019-05-07T06:09:32.920Z,5702.8
2019-05-07T06:19:32.774Z,5702.8
2019-05-07T06:29:32.831Z,5702.8
2019-05-07T06:39:30.139Z,5702.8
2019-05-07T06:49:29.352Z,5702.8
2019-05-07T06:59:28.566Z,5702.8
2019-05-07T07:09:27.810Z,5702.8
2019-05-07T07:19:27.099Z,5702.8
2019-05-07T07:29:26.387Z,5702.8
2019-05-07T07:39:25.677Z,5702.8
2019-05-07T07:49:24.965Z,5702.8
2019-05-07T08:00:42.671Z,5702.8
2019-05-07T08:10:39.809Z,5702.8
2019-05-07T08:20:39.025Z,5702.8
2019-05-07T08:30:38.282Z,5702.8
2019-05-07T08:44:56.169Z,5702.8
2019-05-07T08:54:55.328Z,5702.8
2019-05-07T09:04:54.588Z,5702.8
2019-05-07T09:19:03.096Z,5702.8
2019-05-07T09:29:02.677Z,5702.8
2019-05-07T09:44:16.633Z,5702.8
2019-05-07T10:00:33.246Z,5702.8
2019-05-07T10:10:32.987Z,5702.8
2019-05-07T10:20:32.691Z,5702.8
2019-05-07T10:30:32.106Z,5702.8
2019-05-07T10:46:50.165Z,5702.8
2019-05-07T10:56:49.369Z,5702.8
2019-05-07T11:06:15.315Z,5702.8
2019-05-07T11:16:14.468Z,5702.8
2019-05-07T11:34:45.291Z,5702.8
2019-05-07T11:44:44.500Z,5702.8
2019-05-07T11:54:45.847Z,5702.8
2019-05-07T12:13:42.907Z,5702.8
2019-05-07T12:23:42.287Z,5702.8
2019-05-07T12:37:16.751Z,5702.8
2019-05-07T12:47:15.952Z,5702.8
2019-05-07T12:57:15.162Z,5702.8
2019-05-07T13:13:22.497Z,5702.8
2019-05-07T13:23:22.459Z,5702.8
2019-05-07T13:34:09.740Z,5702.8
2019-05-07T13:44:08.941Z,5702.8
2019-05-07T14:01:12.042Z,5702.8
2019-05-07T14:22:31.796Z,5702.8
2019-05-07T14:32:29.618Z,5702.8
2019-05-07T14:42:28.829Z,5702.8
2019-05-07T14:52:33.016Z,5702.8
2019-05-07T15:02:27.250Z,5702.8
2019-05-07T15:12:26.451Z,5702.8
2019-05-07T15:22:25.701Z,5702.8
2019-05-07T15:32:25.056Z,5702.8
2019-05-07T15:42:24.292Z,5702.8
2019-05-07T15:52:23.585Z,5702.8
2019-05-07T16:02:22.929Z,5702.8
2019-05-07T16:13:01.453Z,5702.8
2019-05-07T16:23:11.897Z,5702.8
2019-05-07T16:33:01.684Z,5703
2019-05-07T16:42:59.076Z,5703.3
2019-05-07T16:52:58.281Z,5703.5
2019-05-07T17:02:57.499Z,5703.8
2019-05-07T17:12:56.758Z,5703.9
2019-05-07T17:22:55.917Z,5703.9
2019-05-07T17:32:55.151Z,5704
2019-05-07T17:42:54.343Z,5704.2
2019-05-07T17:52:53.542Z,5704.2
2019-05-07T18:02:45.635Z,5703.9
2019-05-07T18:12:44.838Z,5703.9
2019-05-07T18:22:44.053Z,5703.9
2019-05-07T18:34:09.905Z,5704.1
2019-05-07T18:44:12.801Z,5704.3
2019-05-07T18:54:08.313Z,5704.6
2019-05-07T19:04:07.521Z,5704.8
2019-05-07T19:14:06.737Z,5705.1
2019-05-07T19:24:05.941Z,5705.3
2019-05-07T19:34:05.206Z,5705.6
2019-05-07T19:44:04.507Z,5705.8
2019-05-07T19:54:03.795Z,5706.1
2019-05-07T20:04:03.091Z,5706.3
2019-05-07T20:14:02.390Z,5706.5
2019-05-07T20:24:01.907Z,5706.8
2019-05-07T20:34:02.300Z,5707
2019-05-07T20:44:02.487Z,5707
2019-05-07T20:53:59.312Z,5707
2019-05-07T21:03:58.521Z,5707
2019-05-07T21:14:03.386Z,5706.8
2019-05-07T21:29:19.067Z,5706.8
2019-05-07T21:39:18.269Z,5706.8
2019-05-07T21:49:17.478Z,5706.8
2019-05-07T21:59:16.689Z,5706.8
2019-05-07T22:09:15.907Z,5706.8
2019-05-07T22:19:15.108Z,5706.8
2019-05-07T22:29:14.356Z,5706.8
2019-05-07T22:39:13.657Z,5706.8
2019-05-07T22:49:12.992Z,5706.8
2019-05-07T22:59:14.605Z,5706.8
2019-05-07T23:09:12.758Z,5706.8
2019-05-07T23:20:05.604Z,5706.8
2019-05-07T23:30:04.804Z,5706.8
2019-05-07T23:40:04.063Z,5706.8
2019-05-07T23:50:03.270Z,5706.8
